Time;durP1;ratioP1;P1;durP2;ratioP2;P2;SDS_P1;SDS_P2;PMS_P1;PMS_P2;Temp;Humidity;BMP_temperature;BMP_pressure;BME280_temperature;BME280_humidity;BME280_pressure;Samples;Min_cycle;Max_cycle;Signal;HPM_P1;HPM_P2
2022/06/12 00:01:06;;;;;;;;;;;;;;;;;;5096980;28;19952;-42
2022/06/12 00:03:33;;;;;;;;;;;;;;;;;;5096358;28;20267;-42
2022/06/12 00:05:59;;;;;;;;;;;;;;;;;;5096686;28;19912;-41
2022/06/12 00:08:26;;;;;;;;;;;;;;;;;;5096590;28;20049;-42
2022/06/12 00:10:52;;;;;;;;;;;;;;;;;;5096578;28;19909;-41
2022/06/12 00:13:18;;;;;;;;;;;;;;;;;;5096939;28;20283;-41
2022/06/12 00:15:43;;;;;;;;;;;;;;;;;;5096675;28;19935;-42
2022/06/12 00:18:09;;;;;;;;;;;;;;;;;;5096772;28;19908;-42
2022/06/12 00:20:34;;;;;;;;;;;;;;;;;;5096333;28;19908;-41
2022/06/12 00:22:59;;;;;;;;;;;;;;;;;;5096581;28;19915;-42
2022/06/12 00:25:26;;;;;;;;;;;;;;;;;;5096257;28;19908;-42
2022/06/12 00:27:51;;;;;;;;;;;;;;;;;;5095956;28;20279;-42
2022/06/12 00:30:18;;;;;;;;;;;;;;;;;;5096447;28;19953;-42
2022/06/12 00:32:49;;;;;;;;;;;;;;;;;;5096368;28;19950;-43
2022/06/12 00:35:14;;;;;;;;;;;;;;;;;;5096196;28;19916;-43
2022/06/12 00:37:40;;;;;;;;;;;;;;;;;;5096037;28;20011;-42
2022/06/12 00:40:05;;;;;;;;;;;;;;;;;;5096331;28;19912;-42
2022/06/12 00:42:30;;;;;;;;;;;;;;;;;;5095807;28;20377;-42
2022/06/12 00:44:55;;;;;;;;;;;;;;;;;;5095954;28;19908;-43
2022/06/12 00:47:20;;;;;;;;;;;;;;;;;;5096018;28;19920;-41
2022/06/12 00:49:48;;;;;;;;;;;;;;;;;;5095760;28;19951;-42
2022/06/12 00:52:13;;;;;;;;;;;;;;;;;;5096172;28;20010;-41
2022/06/12 00:54:41;;;;;;;;;;;;;;;;;;5095785;28;20335;-43
2022/06/12 00:57:06;;;;;;;;;;;;;;;;;;5096152;28;20002;-42
2022/06/12 00:59:31;;;;;;;;;;;;;;;;;;5095716;28;20338;-41
2022/06/12 01:01:58;;;;;;;;;;;;;;;;;;5095615;28;19915;-42
2022/06/12 01:07:06;;;;;;;;;;;;;;;;;;5096777;28;19919;-41
2022/06/12 01:09:36;;;;;;;;;;;;;;;;;;5099460;28;19908;-41
2022/06/12 01:12:03;;;;;;;;;;;;;;;;;;5099914;28;20374;-41
2022/06/12 01:14:29;;;;;;;;;;;;;;;;;;5099870;28;19909;-42
2022/06/12 01:16:56;;;;;;;;;;;;;;;;;;5099596;28;19909;-41
2022/06/12 01:19:23;;;;;;;;;;;;;;;;;;5099859;28;19931;-41
2022/06/12 01:21:52;;;;;;;;;;;;;;;;;;5099955;28;19908;-42
2022/06/12 01:24:19;;;;;;;;;;;;;;;;;;5099510;28;19948;-42
2022/06/12 01:26:47;;;;;;;;;;;;;;;;;;5100214;28;19909;-42
2022/06/12 01:29:12;;;;;;;;;;;;;;;;;;5099486;28;20291;-42
2022/06/12 01:31:38;;;;;;;;;;;;;;;;;;5099559;28;19916;-42
2022/06/12 01:34:03;;;;;;;;;;;;;;;;;;5099299;28;19925;-41
2022/06/12 01:36:29;;;;;;;;;;;;;;;;;;5099617;28;19924;-41
2022/06/12 01:38:57;;;;;;;;;;;;;;;;;;5099553;28;19946;-41
2022/06/12 01:41:23;;;;;;;;;;;;;;;;;;5099300;28;19915;-41
2022/06/12 01:43:49;;;;;;;;;;;;;;;;;;5099271;28;19908;-41
2022/06/12 01:46:17;;;;;;;;;;;;;;;;;;5099167;28;20260;-41
2022/06/12 01:48:42;;;;;;;;;;;;;;;;;;5099213;28;19916;-42
2022/06/12 01:51:07;;;;;;;;;;;;;;;;;;5099057;28;19908;-41
2022/06/12 01:53:34;;;;;;;;;;;;;;;;;;5098904;28;19971;-42
2022/06/12 01:55:59;;;;;;;;;;;;;;;;;;5099127;28;19999;-42
2022/06/12 01:58:27;;;;;;;;;;;;;;;;;;5098831;28;19958;-42
2022/06/12 02:00:52;;;;;;;;;;;;;;;;;;5099176;28;20432;-42
2022/06/12 02:03:17;;;;;;;;;;;;;;;;;;5098828;28;19955;-41
2022/06/12 02:05:44;;;;;;;;;;;;;;;;;;5099353;28;19908;-42
2022/06/12 02:08:09;;;;;;;;;;;;;;;;;;5098610;28;19964;-41
2022/06/12 02:10:37;;;;;;;;;;;;;;;;;;5098715;28;19909;-41
2022/06/12 02:13:12;;;;;;;;;;;;;;;;;;5098857;28;19955;-41
2022/06/12 02:15:37;;;;;;;;;;;;;;;;;;5098445;28;19999;-41
2022/06/12 02:18:03;;;;;;;;;;;;;;;;;;5098747;28;20009;-41
2022/06/12 02:20:31;;;;;;;;;;;;;;;;;;5097484;28;19908;-42
2022/06/12 02:22:57;;;;;;;;;;;;;;;;;;5098470;28;19908;-41
2022/06/12 02:25:22;;;;;;;;;;;;;;;;;;5098400;28;20359;-41
2022/06/12 02:27:49;;;;;;;;;;;;;;;;;;5098370;28;20011;-41
2022/06/12 02:30:17;;;;;;;;;;;;;;;;;;5098543;28;19999;-41
2022/06/12 02:32:42;;;;;;;;;;;;;;;;;;5098507;28;20317;-42
2022/06/12 02:35:07;;;;;;;;;;;;;;;;;;5097800;28;19923;-41
2022/06/12 02:37:32;;;;;;;;;;;;;;;;;;5098378;28;19908;-41
2022/06/12 02:39:58;;;;;;;;;;;;;;;;;;5098179;28;19909;-41
2022/06/12 02:42:23;;;;;;;;;;;;;;;;;;5098079;28;20002;-41
2022/06/12 02:44:49;;;;;;;;;;;;;;;;;;5097958;28;19915;-41
2022/06/12 02:47:14;;;;;;;;;;;;;;;;;;5097850;28;19962;-41
2022/06/12 02:49:40;;;;;;;;;;;;;;;;;;5098369;28;20355;-41
2022/06/12 02:52:05;;;;;;;;;;;;;;;;;;5098114;28;19909;-42
2022/06/12 02:54:33;;;;;;;;;;;;;;;;;;5098025;28;19919;-41
2022/06/12 02:57:00;;;;;;;;;;;;;;;;;;5098228;28;19908;-41
2022/06/12 02:59:25;;;;;;;;;;;;;;;;;;5097998;28;19908;-41
2022/06/12 03:01:50;;;;;;;;;;;;;;;;;;5094579;28;19915;-41
2022/06/12 03:04:15;;;;;;;;;;;;;;;;;;5097912;28;19908;-41
2022/06/12 03:06:44;;;;;;;;;;;;;;;;;;5098127;28;19965;-41
2022/06/12 03:09:09;;;;;;;;;;;;;;;;;;5097377;28;19957;-41
2022/06/12 03:11:36;;;;;;;;;;;;;;;;;;5097759;28;20003;-41
2022/06/12 03:14:02;;;;;;;;;;;;;;;;;;5097911;28;19931;-42
2022/06/12 03:16:27;;;;;;;;;;;;;;;;;;5098053;28;20359;-41
2022/06/12 03:18:54;;;;;;;;;;;;;;;;;;5097557;28;20359;-41
2022/06/12 03:21:19;;;;;;;;;;;;;;;;;;5097703;28;19915;-42
2022/06/12 03:23:45;;;;;;;;;;;;;;;;;;5097319;28;19908;-41
2022/06/12 03:26:10;;;;;;;;;;;;;;;;;;5097423;28;20003;-41
2022/06/12 03:28:36;;;;;;;;;;;;;;;;;;5097707;28;19919;-43
2022/06/12 03:31:01;;;;;;;;;;;;;;;;;;5096877;28;19912;-41
2022/06/12 03:33:26;;;;;;;;;;;;;;;;;;5097120;28;20362;-42
2022/06/12 03:35:54;;;;;;;;;;;;;;;;;;5097245;28;19927;-41
2022/06/12 03:38:20;;;;;;;;;;;;;;;;;;5097090;28;19908;-41
2022/06/12 03:40:46;;;;;;;;;;;;;;;;;;5097331;28;19912;-41
2022/06/12 03:43:11;;;;;;;;;;;;;;;;;;5096864;28;19908;-41
2022/06/12 03:45:42;;;;;;;;;;;;;;;;;;5096725;28;19909;-41
2022/06/12 03:48:10;;;;;;;;;;;;;;;;;;5096641;28;20252;-41
2022/06/12 03:50:35;;;;;;;;;;;;;;;;;;5096432;28;19908;-41
2022/06/12 03:53:00;;;;;;;;;;;;;;;;;;5096458;28;19908;-41
2022/06/12 03:57:50;;;;;;;;;;;;;;;;;;5096346;28;20326;-41
2022/06/12 03:58:10;;;;;;;;;;;;;;;;;;5097051;28;19916;-41
2022/06/12 04:00:35;;;;;;;;;;;;;;;;;;5096879;28;20008;-42
2022/06/12 04:03:04;;;;;;;;;;;;;;;;;;5096497;28;19908;-41
2022/06/12 04:05:30;;;;;;;;;;;;;;;;;;5096286;28;19912;-42
2022/06/12 04:07:55;;;;;;;;;;;;;;;;;;5096144;28;19912;-41
2022/06/12 04:10:23;;;;;;;;;;;;;;;;;;5096227;28;20458;-41
2022/06/12 04:12:48;;;;;;;;;;;;;;;;;;5096313;28;19946;-41
2022/06/12 04:15:13;;;;;;;;;;;;;;;;;;5096108;28;19955;-41
2022/06/12 04:17:40;;;;;;;;;;;;;;;;;;5096332;28;19915;-41
2022/06/12 04:20:05;;;;;;;;;;;;;;;;;;5096375;28;20362;-41
2022/06/12 04:22:34;;;;;;;;;;;;;;;;;;5096640;28;19908;-41
2022/06/12 04:25:00;;;;;;;;;;;;;;;;;;5096140;28;20279;-41
2022/06/12 04:27:26;;;;;;;;;;;;;;;;;;5096033;28;19916;-41
2022/06/12 04:29:51;;;;;;;;;;;;;;;;;;5095797;28;20422;-41
2022/06/12 04:32:19;;;;;;;;;;;;;;;;;;5095867;28;19947;-41
2022/06/12 04:34:45;;;;;;;;;;;;;;;;;;5095548;28;19922;-42
2022/06/12 04:37:10;;;;;;;;;;;;;;;;;;5096020;28;19916;-41
2022/06/12 04:39:36;;;;;;;;;;;;;;;;;;5096448;28;19909;-41
2022/06/12 04:42:04;;;;;;;;;;;;;;;;;;5094662;28;19908;-42
2022/06/12 04:44:30;;;;;;;;;;;;;;;;;;5095925;28;19908;-43
2022/06/12 04:46:55;;;;;;;;;;;;;;;;;;5095708;28;19919;-42
2022/06/12 04:49:21;;;;;;;;;;;;;;;;;;5095613;28;19908;-42
2022/06/12 04:51:46;;;;;;;;;;;;;;;;;;5095607;28;19908;-42
2022/06/12 04:54:11;;;;;;;;;;;;;;;;;;5095557;28;20433;-41
2022/06/12 04:56:37;;;;;;;;;;;;;;;;;;5095575;28;19908;-43
2022/06/12 04:59:02;;;;;;;;;;;;;;;;;;5095742;28;20023;-42
2022/06/12 05:01:32;;;;;;;;;;;;;;;;;;5095505;28;19908;-41
2022/06/12 05:04:00;;;;;;;;;;;;;;;;;;5095434;28;19908;-41
2022/06/12 05:06:25;;;;;;;;;;;;;;;;;;5095462;28;19999;-41
2022/06/12 05:08:50;;;;;;;;;;;;;;;;;;5095465;28;19955;-42
2022/06/12 05:11:15;;;;;;;;;;;;;;;;;;5095316;28;19908;-41
2022/06/12 05:13:40;;;;;;;;;;;;;;;;;;5095665;28;20379;-42
2022/06/12 05:16:09;;;;;;;;;;;;;;;;;;5095798;28;19915;-41
2022/06/12 05:18:34;;;;;;;;;;;;;;;;;;5095359;28;19912;-43
2022/06/12 05:20:59;;;;;;;;;;;;;;;;;;5095511;28;20373;-42
2022/06/12 05:23:25;;;;;;;;;;;;;;;;;;5095689;28;19908;-42
2022/06/12 05:25:53;;;;;;;;;;;;;;;;;;5095744;28;19912;-41
2022/06/12 05:28:20;;;;;;;;;;;;;;;;;;5095808;28;19915;-42
2022/06/12 05:30:45;;;;;;;;;;;;;;;;;;5095346;28;19915;-41
2022/06/12 05:33:11;;;;;;;;;;;;;;;;;;5095250;28;19912;-41
2022/06/12 05:35:37;;;;;;;;;;;;;;;;;;5095377;28;19920;-42
2022/06/12 05:38:02;;;;;;;;;;;;;;;;;;5095507;28;19915;-42
2022/06/12 05:40:30;;;;;;;;;;;;;;;;;;5095419;28;20363;-42
2022/06/12 05:42:55;;;;;;;;;;;;;;;;;;5095526;28;19908;-42
2022/06/12 05:45:20;;;;;;;;;;;;;;;;;;5095095;28;19969;-43
2022/06/12 05:47:45;;;;;;;;;;;;;;;;;;5095195;28;19916;-42
2022/06/12 05:50:12;;;;;;;;;;;;;;;;;;5095104;28;19909;-42
2022/06/12 05:52:37;;;;;;;;;;;;;;;;;;5095254;28;20006;-41
2022/06/12 05:55:03;;;;;;;;;;;;;;;;;;5098720;28;19996;-41
2022/06/12 05:57:31;;;;;;;;;;;;;;;;;;5099177;28;19918;-43
2022/06/12 05:59:59;;;;;;;;;;;;;;;;;;5098790;28;19912;-43
2022/06/12 06:02:24;;;;;;;;;;;;;;;;;;5098977;28;20269;-41
2022/06/12 06:04:49;;;;;;;;;;;;;;;;;;5098420;28;20382;-41
2022/06/12 06:07:15;;;;;;;;;;;;;;;;;;5098399;28;20030;-41
2022/06/12 06:09:43;;;;;;;;;;;;;;;;;;5098659;28;19908;-41
2022/06/12 06:12:08;;;;;;;;;;;;;;;;;;5098472;28;19908;-43
2022/06/12 06:14:33;;;;;;;;;;;;;;;;;;5098277;28;19908;-41
2022/06/12 06:17:01;;;;;;;;;;;;;;;;;;5098468;28;19960;-42
2022/06/12 06:19:29;;;;;;;;;;;;;;;;;;5098179;28;19912;-42
2022/06/12 06:21:56;;;;;;;;;;;;;;;;;;5098112;28;19908;-43
2022/06/12 06:24:21;;;;;;;;;;;;;;;;;;5098098;28;19912;-41
2022/06/12 06:26:49;;;;;;;;;;;;;;;;;;5097765;28;19908;-42
2022/06/12 06:29:15;;;;;;;;;;;;;;;;;;5098142;28;19965;-42
2022/06/12 06:31:43;;;;;;;;;;;;;;;;;;5097793;28;19912;-42
2022/06/12 06:34:08;;;;;;;;;;;;;;;;;;5097760;28;20355;-42
2022/06/12 06:36:34;;;;;;;;;;;;;;;;;;5097436;28;20002;-42
2022/06/12 06:38:59;;;;;;;;;;;;;;;;;;5096214;28;19908;-42
2022/06/12 06:41:25;;;;;;;;;;;;;;;;;;5097589;28;19936;-42
2022/06/12 06:46:34;;;;;;;;;;;;;;;;;;5097693;28;19916;-42
2022/06/12 06:48:59;;;;;;;;;;;;;;;;;;5097414;28;19916;-42
2022/06/12 06:51:24;;;;;;;;;;;;;;;;;;5097339;28;20050;-42
2022/06/12 06:53:52;;;;;;;;;;;;;;;;;;5097549;28;20290;-43
2022/06/12 06:56:18;;;;;;;;;;;;;;;;;;5097340;28;19942;-42
2022/06/12 06:58:43;;;;;;;;;;;;;;;;;;5097186;28;20281;-44
2022/06/12 07:01:10;;;;;;;;;;;;;;;;;;5096948;28;19908;-43
2022/06/12 07:03:38;;;;;;;;;;;;;;;;;;5096958;28;20355;-43
2022/06/12 07:06:03;;;;;;;;;;;;;;;;;;5096283;28;19947;-42
2022/06/12 07:08:28;;;;;;;;;;;;;;;;;;5096776;28;20005;-43
2022/06/12 07:10:54;;;;;;;;;;;;;;;;;;5096715;28;19908;-43
2022/06/12 07:13:22;;;;;;;;;;;;;;;;;;5096782;28;20371;-43
2022/06/12 07:15:50;;;;;;;;;;;;;;;;;;5096795;28;20453;-43
2022/06/12 07:18:18;;;;;;;;;;;;;;;;;;5097164;28;19947;-42
2022/06/12 07:20:45;;;;;;;;;;;;;;;;;;5096733;28;19962;-43
2022/06/12 07:23:14;;;;;;;;;;;;;;;;;;5096742;28;20117;-42
2022/06/12 07:25:43;;;;;;;;;;;;;;;;;;5096624;28;19908;-43
2022/06/12 07:28:11;;;;;;;;;;;;;;;;;;5096522;28;20251;-43
2022/06/12 07:30:36;;;;;;;;;;;;;;;;;;5096762;28;20007;-43
2022/06/12 07:33:01;;;;;;;;;;;;;;;;;;5096653;28;19944;-43
2022/06/12 07:35:26;;;;;;;;;;;;;;;;;;5096327;28;19916;-42
2022/06/12 07:37:54;;;;;;;;;;;;;;;;;;5096530;28;20267;-43
2022/06/12 07:40:19;;;;;;;;;;;;;;;;;;5096640;28;19912;-43
2022/06/12 07:42:47;;;;;;;;;;;;;;;;;;5096721;28;19961;-43
2022/06/12 07:45:13;;;;;;;;;;;;;;;;;;5096212;28;20358;-43
2022/06/12 07:47:38;;;;;;;;;;;;;;;;;;5096030;28;19916;-43
2022/06/12 07:50:03;;;;;;;;;;;;;;;;;;5096100;28;19943;-42
2022/06/12 07:52:29;;;;;;;;;;;;;;;;;;5096004;28;19908;-42
2022/06/12 07:54:55;;;;;;;;;;;;;;;;;;5096019;28;19908;-46
2022/06/12 07:57:20;;;;;;;;;;;;;;;;;;5095939;28;20358;-42
2022/06/12 07:59:45;;;;;;;;;;;;;;;;;;5095973;28;19914;-44
2022/06/12 08:02:13;;;;;;;;;;;;;;;;;;5095876;28;19920;-42
2022/06/12 08:04:40;;;;;;;;;;;;;;;;;;5095942;28;20010;-43
2022/06/12 08:07:08;;;;;;;;;;;;;;;;;;5096146;28;19960;-43
2022/06/12 08:09:34;;;;;;;;;;;;;;;;;;5095755;28;20359;-43
2022/06/12 08:12:02;;;;;;;;;;;;;;;;;;5095649;28;19908;-43
2022/06/12 08:14:30;;;;;;;;;;;;;;;;;;5095572;28;19908;-43
2022/06/12 08:16:55;;;;;;;;;;;;;;;;;;5095526;28;19908;-43
2022/06/12 08:22:04;;;;;;;;;;;;;;;;;;5095719;28;20057;-43
2022/06/12 08:24:29;;;;;;;;;;;;;;;;;;5095650;28;19948;-42
2022/06/12 08:26:54;;;;;;;;;;;;;;;;;;5095415;28;19908;-44
2022/06/12 08:29:20;;;;;;;;;;;;;;;;;;5095576;28;19945;-43
2022/06/12 08:31:45;;;;;;;;;;;;;;;;;;5095682;28;19908;-43
2022/06/12 08:34:11;;;;;;;;;;;;;;;;;;5098277;22;20453;-42
2022/06/12 08:36:37;;;;;;;;;;;;;;;;;;5075177;28;19909;-43
2022/06/12 08:39:03;;;;;;;;;;;;;;;;;;5075140;28;20348;-43
2022/06/12 08:41:29;;;;;;;;;;;;;;;;;;5074991;28;19908;-43
2022/06/12 08:43:54;;;;;;;;;;;;;;;;;;5075205;28;19909;-43
2022/06/12 08:46:20;;;;;;;;;;;;;;;;;;5075113;28;20002;-45
2022/06/12 08:48:45;;;;;;;;;;;;;;;;;;5075072;28;20062;-44
2022/06/12 08:51:10;;;;;;;;;;;;;;;;;;5074835;28;19958;-44
2022/06/12 08:53:38;;;;;;;;;;;;;;;;;;5074880;28;19909;-44
2022/06/12 08:56:05;;;;;;;;;;;;;;;;;;5074863;28;19909;-42
2022/06/12 08:58:33;;;;;;;;;;;;;;;;;;5075061;28;19908;-43
2022/06/12 09:00:58;;;;;;;;;;;;;;;;;;5074834;28;19970;-44
2022/06/12 09:03:24;;;;;;;;;;;;;;;;;;5074929;28;20295;-43
2022/06/12 09:05:49;;;;;;;;;;;;;;;;;;5075010;28;19959;-43
2022/06/12 09:08:17;;;;;;;;;;;;;;;;;;5074725;28;19919;-43
2022/06/12 09:10:43;;;;;;;;;;;;;;;;;;5074886;28;19909;-42
2022/06/12 09:13:08;;;;;;;;;;;;;;;;;;5074814;28;19954;-44
2022/06/12 09:15:34;;;;;;;;;;;;;;;;;;5074713;28;19932;-43
2022/06/12 09:18:00;;;;;;;;;;;;;;;;;;5074686;28;20420;-44
2022/06/12 09:20:28;;;;;;;;;;;;;;;;;;5074680;28;20368;-44
2022/06/12 09:22:54;;;;;;;;;;;;;;;;;;5074424;28;20418;-43
2022/06/12 09:25:20;;;;;;;;;;;;;;;;;;5074456;28;19968;-43
2022/06/12 09:27:48;;;;;;;;;;;;;;;;;;5074631;28;20007;-43
2022/06/12 09:30:13;;;;;;;;;;;;;;;;;;5078364;28;19943;-42
2022/06/12 09:32:38;;;;;;;;;;;;;;;;;;5078340;28;19908;-42
2022/06/12 09:35:06;;;;;;;;;;;;;;;;;;5062511;28;19921;-44
2022/06/12 09:40:15;;;;;;;;;;;;;;;;;;5058500;28;19970;-44
2022/06/12 09:42:40;;;;;;;;;;;;;;;;;;5058042;28;19913;-43
2022/06/12 09:45:05;;;;;;;;;;;;;;;;;;5058582;28;19909;-44
2022/06/12 09:47:31;;;;;;;;;;;;;;;;;;5058048;28;19921;-43
2022/06/12 09:49:56;;;;;;;;;;;;;;;;;;5058101;28;19912;-43
2022/06/12 09:52:21;;;;;;;;;;;;;;;;;;5058047;28;19908;-43
2022/06/12 09:54:49;;;;;;;;;;;;;;;;;;5057958;28;19909;-43
2022/06/12 09:57:18;;;;;;;;;;;;;;;;;;5058071;28;19963;-43
2022/06/12 09:59:43;;;;;;;;;;;;;;;;;;5058113;28;19912;-46
2022/06/12 10:02:09;;;;;;;;;;;;;;;;;;5057871;28;19909;-43
2022/06/12 10:04:37;;;;;;;;;;;;;;;;;;5058047;28;19909;-43
2022/06/12 10:07:03;;;;;;;;;;;;;;;;;;5057875;28;19908;-43
2022/06/12 10:09:29;;;;;;;;;;;;;;;;;;5057677;28;20063;-44
2022/06/12 10:11:54;;;;;;;;;;;;;;;;;;5058016;28;19920;-43
2022/06/12 10:14:19;;;;;;;;;;;;;;;;;;5057811;28;19908;-43
2022/06/12 10:16:44;;;;;;;;;;;;;;;;;;5057756;28;19908;-43
2022/06/12 10:19:09;;;;;;;;;;;;;;;;;;5057690;28;19921;-44
2022/06/12 10:21:35;;;;;;;;;;;;;;;;;;5057399;28;19909;-44
2022/06/12 10:24:01;;;;;;;;;;;;;;;;;;5057493;28;20011;-43
2022/06/12 10:26:29;;;;;;;;;;;;;;;;;;5057474;28;19909;-43
2022/06/12 10:28:54;;;;;;;;;;;;;;;;;;5057235;28;19912;-43
2022/06/12 10:31:19;;;;;;;;;;;;;;;;;;5057114;28;19916;-43
2022/06/12 10:33:44;;;;;;;;;;;;;;;;;;5057301;28;19916;-43
2022/06/12 10:36:09;;;;;;;;;;;;;;;;;;5057325;28;19957;-43
2022/06/12 10:38:37;;;;;;;;;;;;;;;;;;5057290;28;20398;-43
2022/06/12 10:41:02;;;;;;;;;;;;;;;;;;5055933;28;20054;-43
2022/06/12 10:43:29;;;;;;;;;;;;;;;;;;5057214;28;20114;-44
2022/06/12 10:45:57;;;;;;;;;;;;;;;;;;5057162;28;19909;-43
2022/06/12 10:48:22;;;;;;;;;;;;;;;;;;5057012;28;19913;-43
2022/06/12 10:50:48;;;;;;;;;;;;;;;;;;5057057;28;19915;-43
2022/06/12 10:53:13;;;;;;;;;;;;;;;;;;5057171;28;20352;-43
2022/06/12 10:55:38;;;;;;;;;;;;;;;;;;5056804;28;19909;-43
2022/06/12 10:58:03;;;;;;;;;;;;;;;;;;5056944;28;19952;-43
2022/06/12 11:00:29;;;;;;;;;;;;;;;;;;5056720;28;19908;-43
2022/06/12 11:02:57;;;;;;;;;;;;;;;;;;5056599;28;20372;-43
2022/06/12 11:05:22;;;;;;;;;;;;;;;;;;5056578;28;19918;-43
2022/06/12 11:07:49;;;;;;;;;;;;;;;;;;5056565;28;19913;-42
2022/06/12 11:10:14;;;;;;;;;;;;;;;;;;5056425;28;19909;-43
2022/06/12 11:12:41;;;;;;;;;;;;;;;;;;5056284;28;19916;-44
2022/06/12 11:15:07;;;;;;;;;;;;;;;;;;5056480;28;19932;-43
2022/06/12 11:17:39;;;;;;;;;;;;;;;;;;5056227;28;19969;-44
2022/06/12 11:20:04;;;;;;;;;;;;;;;;;;5056236;28;19915;-44
2022/06/12 11:22:29;;;;;;;;;;;;;;;;;;5056071;28;19917;-44
2022/06/12 11:24:54;;;;;;;;;;;;;;;;;;5056034;28;19916;-43
2022/06/12 11:27:19;;;;;;;;;;;;;;;;;;5055976;28;19920;-44
2022/06/12 11:29:44;;;;;;;;;;;;;;;;;;5056147;28;19909;-43
2022/06/12 11:32:10;;;;;;;;;;;;;;;;;;5055984;28;19917;-43
2022/06/12 11:34:35;;;;;;;;;;;;;;;;;;5055702;28;19920;-43
2022/06/12 11:37:00;;;;;;;;;;;;;;;;;;5055909;28;19971;-45
2022/06/12 11:39:27;;;;;;;;;;;;;;;;;;5055795;28;19916;-44
2022/06/12 11:41:52;;;;;;;;;;;;;;;;;;5055716;28;19955;-44
2022/06/12 11:44:18;;;;;;;;;;;;;;;;;;5055617;28;19909;-44
2022/06/12 11:46:43;;;;;;;;;;;;;;;;;;5055658;28;19916;-43
2022/06/12 11:49:08;;;;;;;;;;;;;;;;;;5055722;28;19935;-44
2022/06/12 11:51:33;;;;;;;;;;;;;;;;;;5055423;28;20281;-43
2022/06/12 11:53:58;;;;;;;;;;;;;;;;;;5056024;28;19982;-44
2022/06/12 11:56:24;;;;;;;;;;;;;;;;;;5055754;28;19963;-44
2022/06/12 11:58:51;;;;;;;;;;;;;;;;;;5055375;28;19917;-45
2022/06/12 12:01:17;;;;;;;;;;;;;;;;;;5055508;28;19949;-45
2022/06/12 12:03:46;;;;;;;;;;;;;;;;;;5055596;28;19912;-43
2022/06/12 12:06:11;;;;;;;;;;;;;;;;;;5055254;28;19916;-43
2022/06/12 12:08:40;;;;;;;;;;;;;;;;;;5055368;28;20275;-44
2022/06/12 12:11:05;;;;;;;;;;;;;;;;;;5055239;28;20316;-44
2022/06/12 12:13:31;;;;;;;;;;;;;;;;;;5055189;28;19959;-43
2022/06/12 12:15:56;;;;;;;;;;;;;;;;;;5055262;28;19916;-43
2022/06/12 12:18:21;;;;;;;;;;;;;;;;;;5055160;28;19909;-45
2022/06/12 12:20:46;;;;;;;;;;;;;;;;;;5054995;28;20376;-44
2022/06/12 12:23:11;;;;;;;;;;;;;;;;;;5054743;28;19949;-43
2022/06/12 12:25:37;;;;;;;;;;;;;;;;;;5054829;28;19915;-44
2022/06/12 12:28:04;;;;;;;;;;;;;;;;;;5054891;28;19920;-45
2022/06/12 12:30:30;;;;;;;;;;;;;;;;;;5054961;28;19917;-44
2022/06/12 12:32:58;;;;;;;;;;;;;;;;;;5054535;28;20371;-47
2022/06/12 12:43:37;;;;;;;;;;;;;;;;;;5054806;28;19959;-43
2022/06/12 12:46:05;;;;;;;;;;;;;;;;;;5054769;28;19952;-43
2022/06/12 12:48:30;;;;;;;;;;;;;;;;;;5054616;28;20000;-44
2022/06/12 12:50:56;;;;;;;;;;;;;;;;;;5061906;28;19963;-43
2022/06/12 12:53:21;;;;;;;;;;;;;;;;;;5074501;28;19908;-44
2022/06/12 12:55:49;;;;;;;;;;;;;;;;;;5074686;28;20329;-43
2022/06/12 12:58:14;;;;;;;;;;;;;;;;;;5074548;28;19909;-44
2022/06/12 13:00:41;;;;;;;;;;;;;;;;;;5074784;28;19915;-44
2022/06/12 13:03:09;;;;;;;;;;;;;;;;;;5073741;28;19908;-43
2022/06/12 13:05:34;;;;;;;;;;;;;;;;;;5074558;28;20345;-44
2022/06/12 13:07:59;;;;;;;;;;;;;;;;;;5074391;28;19913;-43
2022/06/12 13:10:24;;;;;;;;;;;;;;;;;;5074369;28;19912;-44
2022/06/12 13:12:50;;;;;;;;;;;;;;;;;;5074282;28;19909;-44
2022/06/12 13:15:15;;;;;;;;;;;;;;;;;;5074270;28;19915;-43
2022/06/12 13:17:41;;;;;;;;;;;;;;;;;;5074390;28;20003;-43
2022/06/12 13:20:06;;;;;;;;;;;;;;;;;;5074242;28;19947;-44
2022/06/12 13:22:31;;;;;;;;;;;;;;;;;;5074297;28;19908;-44
2022/06/12 13:24:56;;;;;;;;;;;;;;;;;;5074328;28;19916;-43
2022/06/12 13:27:22;;;;;;;;;;;;;;;;;;5074130;28;19930;-43
2022/06/12 13:29:49;;;;;;;;;;;;;;;;;;5074225;28;19948;-44
2022/06/12 13:32:14;;;;;;;;;;;;;;;;;;5074441;28;20290;-44
2022/06/12 13:34:39;;;;;;;;;;;;;;;;;;5074144;28;20003;-43
2022/06/12 13:37:04;;;;;;;;;;;;;;;;;;5074454;28;19909;-43
2022/06/12 13:39:31;;;;;;;;;;;;;;;;;;5074301;28;19966;-43
2022/06/12 13:41:56;;;;;;;;;;;;;;;;;;5074431;28;19952;-43
2022/06/12 13:44:21;;;;;;;;;;;;;;;;;;5074156;28;20363;-43
2022/06/12 13:46:47;;;;;;;;;;;;;;;;;;5074162;28;19909;-43
2022/06/12 13:49:12;;;;;;;;;;;;;;;;;;5074096;28;19958;-44
2022/06/12 13:51:39;;;;;;;;;;;;;;;;;;5073985;28;20360;-44
2022/06/12 13:54:04;;;;;;;;;;;;;;;;;;5074091;28;20332;-43
2022/06/12 13:56:31;;;;;;;;;;;;;;;;;;5074150;28;19913;-43
2022/06/12 13:58:56;;;;;;;;;;;;;;;;;;5073933;28;19908;-42
2022/06/12 14:01:21;;;;;;;;;;;;;;;;;;5074131;28;20278;-44
2022/06/12 14:03:46;;;;;;;;;;;;;;;;;;5074071;28;19909;-45
2022/06/12 14:06:14;;;;;;;;;;;;;;;;;;5073924;28;20338;-43
2022/06/12 14:08:41;;;;;;;;;;;;;;;;;;5073987;28;19912;-44
2022/06/12 14:11:06;;;;;;;;;;;;;;;;;;5074191;28;20236;-43
2022/06/12 14:13:31;;;;;;;;;;;;;;;;;;5073770;28;19916;-41
2022/06/12 14:15:59;;;;;;;;;;;;;;;;;;5076240;28;19951;-44
2022/06/12 14:18:24;;;;;;;;;;;;;;;;;;5073645;28;19908;-44
2022/06/12 14:20:49;;;;;;;;;;;;;;;;;;5057175;28;19913;-44
2022/06/12 14:23:15;;;;;;;;;;;;;;;;;;5057372;28;19912;-44
2022/06/12 14:25:40;;;;;;;;;;;;;;;;;;5057294;28;20011;-44
2022/06/12 14:28:08;;;;;;;;;;;;;;;;;;5057204;28;19913;-43
2022/06/12 14:30:33;;;;;;;;;;;;;;;;;;5057201;28;20382;-43
2022/06/12 14:32:59;;;;;;;;;;;;;;;;;;5057000;28;19912;-44
2022/06/12 14:35:24;;;;;;;;;;;;;;;;;;5056883;28;19921;-44
2022/06/12 14:37:49;;;;;;;;;;;;;;;;;;5057075;28;19916;-42
2022/06/12 14:40:14;;;;;;;;;;;;;;;;;;5057053;28;19909;-42
2022/06/12 14:42:39;;;;;;;;;;;;;;;;;;5056973;28;19962;-43
2022/06/12 14:45:04;;;;;;;;;;;;;;;;;;5056888;28;19909;-42
2022/06/12 14:47:34;;;;;;;;;;;;;;;;;;5056705;28;19913;-42
2022/06/12 14:50:00;;;;;;;;;;;;;;;;;;5056753;28;19908;-42
2022/06/12 14:52:28;;;;;;;;;;;;;;;;;;5061107;28;19912;-42
2022/06/12 14:54:54;;;;;;;;;;;;;;;;;;5076868;28;20030;-42
2022/06/12 14:57:19;;;;;;;;;;;;;;;;;;5076484;28;19950;-42
2022/06/12 14:59:46;;;;;;;;;;;;;;;;;;5076816;28;19999;-41
2022/06/12 15:02:13;;;;;;;;;;;;;;;;;;5076610;28;20401;-45
2022/06/12 15:04:39;;;;;;;;;;;;;;;;;;5076742;28;19909;-43
2022/06/12 15:07:07;;;;;;;;;;;;;;;;;;5076705;28;19908;-42
2022/06/12 15:09:35;;;;;;;;;;;;;;;;;;5076892;28;19913;-42
2022/06/12 15:12:00;;;;;;;;;;;;;;;;;;5076631;28;19908;-43
2022/06/12 15:14:25;;;;;;;;;;;;;;;;;;5076645;28;19915;-42
2022/06/12 15:16:50;;;;;;;;;;;;;;;;;;5076260;28;20014;-42
2022/06/12 15:19:18;;;;;;;;;;;;;;;;;;5076562;28;19938;-45
2022/06/12 15:21:46;;;;;;;;;;;;;;;;;;5075206;28;20289;-43
2022/06/12 15:24:14;;;;;;;;;;;;;;;;;;5076160;28;19995;-42
2022/06/12 15:32:10;;;;;;;;;;;;;;;;;;5076098;28;19915;-42
2022/06/12 15:34:38;;;;;;;;;;;;;;;;;;5075839;28;20007;-42
2022/06/12 15:37:07;;;;;;;;;;;;;;;;;;5075953;28;19908;-42
2022/06/12 15:39:34;;;;;;;;;;;;;;;;;;5076231;28;19909;-44
2022/06/12 15:42:00;;;;;;;;;;;;;;;;;;5075907;28;19974;-42
2022/06/12 15:44:28;;;;;;;;;;;;;;;;;;5076100;28;20363;-42
2022/06/12 15:46:53;;;;;;;;;;;;;;;;;;5075753;28;19916;-42
2022/06/12 15:49:19;;;;;;;;;;;;;;;;;;5075541;28;19913;-43
2022/06/12 15:51:44;;;;;;;;;;;;;;;;;;5075773;28;20283;-42
2022/06/12 15:54:11;;;;;;;;;;;;;;;;;;5075464;28;19928;-42
2022/06/12 15:56:38;;;;;;;;;;;;;;;;;;5075532;28;19913;-42
2022/06/12 15:59:04;;;;;;;;;;;;;;;;;;5075432;28;19909;-42
2022/06/12 16:01:30;;;;;;;;;;;;;;;;;;5075248;28;19923;-43
2022/06/12 16:03:58;;;;;;;;;;;;;;;;;;5075436;28;20025;-42
2022/06/12 16:06:26;;;;;;;;;;;;;;;;;;5075350;28;19915;-42
2022/06/12 16:08:54;;;;;;;;;;;;;;;;;;5075146;28;19912;-43
2022/06/12 16:11:19;;;;;;;;;;;;;;;;;;5075301;28;19913;-43
2022/06/12 16:13:44;;;;;;;;;;;;;;;;;;5075199;28;19978;-42
2022/06/12 16:16:09;;;;;;;;;;;;;;;;;;5075208;28;19908;-42
2022/06/12 16:18:37;;;;;;;;;;;;;;;;;;5075066;28;20363;-43
2022/06/12 16:21:04;;;;;;;;;;;;;;;;;;5075324;28;20282;-42
2022/06/12 16:23:32;;;;;;;;;;;;;;;;;;5074922;28;19920;-42
2022/06/12 16:25:58;;;;;;;;;;;;;;;;;;5075050;28;19953;-43
2022/06/12 16:28:24;;;;;;;;;;;;;;;;;;5074723;28;19916;-43
2022/06/12 16:30:51;;;;;;;;;;;;;;;;;;5075400;28;19962;-43
2022/06/12 16:33:16;;;;;;;;;;;;;;;;;;5075006;28;19905;-44
2022/06/12 16:35:44;;;;;;;;;;;;;;;;;;5074765;28;20394;-42
2022/06/12 16:38:09;;;;;;;;;;;;;;;;;;5073963;28;19916;-42
2022/06/12 16:40:37;;;;;;;;;;;;;;;;;;5074775;28;19908;-42
2022/06/12 16:43:02;;;;;;;;;;;;;;;;;;5075111;28;20335;-42
2022/06/12 16:45:29;;;;;;;;;;;;;;;;;;5074826;28;19916;-42
2022/06/12 16:47:57;;;;;;;;;;;;;;;;;;5074844;28;19913;-43
2022/06/12 16:50:22;;;;;;;;;;;;;;;;;;5074718;28;20283;-42
2022/06/12 16:52:49;;;;;;;;;;;;;;;;;;5074940;28;19915;-42
2022/06/12 16:55:14;;;;;;;;;;;;;;;;;;5074946;28;20299;-42
2022/06/12 16:57:42;;;;;;;;;;;;;;;;;;5074901;28;19909;-42
2022/06/12 17:00:07;;;;;;;;;;;;;;;;;;5074709;28;19908;-42
2022/06/12 17:02:36;;;;;;;;;;;;;;;;;;5074543;28;20240;-44